Terminal Aerodrome Forecast
Issued by NWS Cleveland, OH

Home | Current Version | Previous Version | Graphics & Text | Print | Product List | Glossary On
Versions: 1 2 3 4 5 6 7 8 9 10 11 12 13 14 15 16 17 18 19 20 21 22
000
FTUS41 KCLE 182045 AAB
TAFERI
TAF AMD
KERI 182045Z 1821/1918 34004KT P6SM OVC030
      TEMPO 1822/1901 OVC035
     FM190200 05008KT P6SM VCSH OVC025
     FM190400 04010KT 4SM -SN OVC012
     FM190900 36012G22KT 4SM -SN OVC007
     FM191300 34017G25KT 2SM -SHSN OVC010=

USA.gov is the U.S. government's official web portal to all federal, state and local government web resources and services.